Startpagina
METAR-TAF:

METAR-TAF

Vliegvelden :

Miami, Florida, Verenigde Staten

Internationale Luchthaven Miami

breedte: 25-47-26N, lengte: 080-18-59W, hoogte: 3 m

Actueel weer

Dit bericht is 50 minuten geleden gemaakt, om 05:53 UTC
Wind 5 kt uit variabele richting
Temperatuur 28°C
Vochtigheid 70%
Druk 1016 hPa
Zicht: 16.1 km
Weinig wolken op 4000 ft
Weinig wolken op 25000 ft

METAR: KMIA 280553Z VRB05KT 10SM FEW040 FEW250 28/22 A3000 RMK AO2 SLP158 T02780217 10300 20267 58012

Tijdstip: 02:43 (06:43 UTC)

Verwachting

Dit bericht is 1 uur en het 23 minuten geleden gemaakt, om 05:20 UTC
Verwachting geldig van 28 om 06 UTC tot 29 om 06 UTC
Wind 3 kt uit het westzuidwesten
Zicht: 10 km
Weinig wolken op 12000 ft
Van 28 om 1800 UTC
Wind 10 kt uit het zuidoosten
Zicht: 10 km
Verspreide wolken op 4000 ft
Van 29 om 0000 UTC
Wind 5 kt uit het zuiden
Zicht: 10 km
Onbewolkt

TAF: KMIA 280520Z 2806/2906 24003KT P6SM FEW120 FM281800 14010KT P6SM SCT040 FM290000 17005KT P6SM SKC

Waarnemingen en weersverwachtingen van meer dan 4000 vliegvelden (METAR en TAF).

De beschikbare stations zijn de gele en rode punten op de kaart.

Ga met uw muis naar het station om de naam te zien.

Klik dan om waarnemingen en weersverwachtingen te zien.

kaart wijzigen: klik op de groene knoppen met een zwart kruis om in te zoomen, op de groene knop met een streepje om uit te zoomen of op de groene pijlen voor aangrenzende kaarten.


METAR-TAF: